createdAt,value
2018-01-29T00:01:37.296Z,96221.23
2018-01-29T00:04:05.849Z,96222.24
2018-01-29T00:06:34.124Z,96211.09
2018-01-29T00:09:02.416Z,96216.59
2018-01-29T00:11:31.791Z,96220.42
2018-01-29T00:14:00.068Z,96211.88
2018-01-29T00:16:28.343Z,96201.23
2018-01-29T00:19:08.708Z,96212.93
2018-01-29T00:21:47.727Z,96204.63
2018-01-29T00:24:16.010Z,96199.63
2018-01-29T00:26:44.276Z,96207.73
2018-01-29T00:29:16.332Z,96211.36
2018-01-29T00:32:14.928Z,96210.05
2018-01-29T00:34:53.121Z,96213.77
2018-01-29T00:37:32.153Z,96205.61
2018-01-29T00:40:01.201Z,96215.70
2018-01-29T00:42:29.479Z,96213.74
2018-01-29T00:44:59.729Z,96211.56
2018-01-29T00:47:30.832Z,96216.37
2018-01-29T00:49:59.897Z,96205.86
2018-01-29T00:52:28.185Z,96220.16
2018-01-29T00:54:56.468Z,96217.75
2018-01-29T00:57:25.669Z,96213.78
2018-01-29T01:00:10.764Z,96212.89
2018-01-29T01:02:42.410Z,96211.70
2018-01-29T01:05:10.716Z,96209.98
2018-01-29T01:07:44.312Z,96211.42
2018-01-29T01:10:12.602Z,96204.05
2018-01-29T01:13:07.837Z,96207.17
2018-01-29T01:15:36.117Z,96208.78
2018-01-29T01:18:04.387Z,96209.52
2018-01-29T01:20:34.345Z,96209.72
2018-01-29T01:23:02.612Z,96204.01
2018-01-29T01:25:30.891Z,96204.20
2018-01-29T01:27:59.936Z,96205.92
2018-01-29T01:30:28.213Z,96209.29
2018-01-29T01:32:56.496Z,96207.87
2018-01-29T01:35:24.780Z,96201.31
2018-01-29T01:37:53.989Z,96203.17
2018-01-29T01:40:45.674Z,96201.84
2018-01-29T01:43:13.953Z,96207.29
2018-01-29T01:45:42.248Z,96194.19
2018-01-29T01:48:14.624Z,96182.34
2018-01-29T01:50:42.919Z,96188.33
2018-01-29T01:53:11.197Z,96179.20
2018-01-29T01:55:39.484Z,96166.85
2018-01-29T01:58:19.208Z,96175.92
2018-01-29T02:00:58.251Z,96172.19
2018-01-29T02:03:27.289Z,96176.05
2018-01-29T02:05:56.348Z,96180.92
2018-01-29T02:08:25.416Z,96166.94
2018-01-29T02:11:10.608Z,96171.30
2018-01-29T02:13:38.884Z,96169.68
2018-01-29T02:16:26.605Z,96156.62
2018-01-29T02:18:55.821Z,96150.96
2018-01-29T02:21:31.985Z,96151.98
2018-01-29T02:24:00.340Z,96152.18
2018-01-29T02:26:28.637Z,96152.35
2018-01-29T02:28:57.674Z,96139.07
2018-01-29T02:31:25.959Z,96140.17
2018-01-29T02:33:54.262Z,96140.66
2018-01-29T02:36:22.568Z,96129.87
2018-01-29T02:38:50.857Z,96128.66
2018-01-29T02:41:19.133Z,96120.08
2018-01-29T02:43:47.416Z,96120.77
2018-01-29T02:46:26.828Z,96119.61
2018-01-29T02:48:55.885Z,96111.02
2018-01-29T02:51:24.168Z,96114.84
2018-01-29T02:53:52.447Z,96107.28
2018-01-29T02:56:20.729Z,96087.91
2018-01-29T02:58:49.023Z,96087.97
2018-01-29T03:01:17.319Z,96086.66
2018-01-29T03:04:12.535Z,96078.39
2018-01-29T03:06:40.801Z,96068.83
2018-01-29T03:09:41.993Z,96067.33
2018-01-29T03:12:14.365Z,96069.56
2018-01-29T03:14:43.784Z,96061.97
2018-01-29T03:17:12.056Z,96067.45
2018-01-29T03:19:41.287Z,96062.48
2018-01-29T03:22:09.568Z,96051.27
2018-01-29T03:24:47.561Z,96045.20
2018-01-29T03:27:21.922Z,96044.25
2018-01-29T03:29:50.214Z,96045.97
2018-01-29T03:32:25.620Z,96051.61
2018-01-29T03:34:59.485Z,96047.70
2018-01-29T03:37:27.752Z,96053.33
2018-01-29T03:39:56.800Z,96052.19
2018-01-29T03:42:42.495Z,96059.61
2018-01-29T03:45:16.109Z,96060.73
2018-01-29T03:47:44.379Z,96050.56
2018-01-29T03:50:12.657Z,96053.87
2018-01-29T03:52:40.933Z,96048.95
2018-01-29T03:55:09.225Z,96044.14
2018-01-29T03:57:37.522Z,96045.89
2018-01-29T04:00:06.548Z,96042.75
2018-01-29T04:02:34.821Z,96050.03
2018-01-29T04:05:03.199Z,96040.81
2018-01-29T04:07:37.262Z,96036.57
2018-01-29T04:10:06.458Z,96037.31
2018-01-29T04:12:34.728Z,96029.14
2018-01-29T04:15:04.519Z,96031.03
2018-01-29T04:17:32.787Z,96014.88
2018-01-29T04:20:01.084Z,96021.13
2018-01-29T04:22:29.352Z,96015.78
2018-01-29T04:24:57.633Z,96020.39
2018-01-29T04:27:26.669Z,96018.41
2018-01-29T04:29:54.947Z,96014.25
2018-01-29T04:32:23.221Z,96013.19
2018-01-29T04:34:51.493Z,96008.27
2018-01-29T04:37:19.767Z,96006.05
2018-01-29T04:39:51.042Z,96002.67
2018-01-29T04:42:19.300Z,95996.27
2018-01-29T04:44:48.361Z,95983.41
2018-01-29T04:47:16.672Z,95970.98
2018-01-29T04:49:52.471Z,95967.19
2018-01-29T04:52:23.648Z,95971.01
2018-01-29T04:54:51.932Z,95984.02
2018-01-29T04:57:20.913Z,95972.64
2018-01-29T04:59:49.938Z,95987.15
2018-01-29T05:02:18.236Z,95974.25
2018-01-29T05:04:46.499Z,95977.80
2018-01-29T05:07:16.372Z,95970.51
2018-01-29T05:09:44.656Z,95984.80
2018-01-29T05:12:12.933Z,95985.30
2018-01-29T05:14:41.199Z,95986.42
2018-01-29T05:17:09.501Z,95983.20
2018-01-29T05:19:38.707Z,95980.75
2018-01-29T05:22:10.065Z,95982.69
2018-01-29T05:24:44.064Z,95985.40
2018-01-29T05:27:12.303Z,95976.58
2018-01-29T05:29:40.568Z,95977.28
2018-01-29T05:32:08.855Z,95982.41
2018-01-29T05:34:42.056Z,95978.61
2018-01-29T05:37:16.112Z,95985.53
2018-01-29T05:39:44.393Z,95981.61
2018-01-29T05:42:12.673Z,95976.20
2018-01-29T05:44:40.949Z,95968.35
2018-01-29T05:47:09.809Z,95965.59
2018-01-29T05:49:44.062Z,95955.91
2018-01-29T05:52:13.116Z,95963.19
2018-01-29T05:54:42.279Z,95955.36
2018-01-29T05:57:15.439Z,95946.86
2018-01-29T05:59:43.707Z,95943.80
2018-01-29T06:02:12.898Z,95933.57
2018-01-29T06:04:41.169Z,95941.03
2018-01-29T06:07:09.499Z,95942.15
2018-01-29T06:09:37.752Z,95948.09
2018-01-29T06:12:06.022Z,95936.28
2018-01-29T06:14:34.305Z,95929.79
2018-01-29T06:17:02.606Z,95937.75
2018-01-29T06:19:31.646Z,95936.41
2018-01-29T06:21:59.916Z,95940.66
2018-01-29T06:24:28.204Z,95943.84
2018-01-29T06:27:01.513Z,95933.49
2018-01-29T06:29:29.778Z,95931.89
2018-01-29T06:31:58.811Z,95926.06
2018-01-29T06:34:29.054Z,95938.28
2018-01-29T06:36:57.324Z,95930.15
2018-01-29T06:39:25.596Z,95940.38
2018-01-29T06:41:54.625Z,95944.86
2018-01-29T06:44:23.854Z,95951.39
2018-01-29T06:46:52.888Z,95942.84
2018-01-29T06:49:22.160Z,95939.98
2018-01-29T06:51:50.423Z,95939.22
2018-01-29T06:54:19.468Z,95942.47
2018-01-29T06:56:47.733Z,95961.32
2018-01-29T06:59:16.021Z,95953.07
2018-01-29T07:01:44.296Z,95964.82
2018-01-29T07:04:13.331Z,95943.03
2018-01-29T07:06:41.613Z,95956.72
2018-01-29T07:09:09.911Z,95948.97
2018-01-29T07:11:38.185Z,95951.03
2018-01-29T07:14:06.469Z,95953.50
2018-01-29T07:16:35.501Z,95956.73
2018-01-29T07:19:03.998Z,95955.29
2018-01-29T07:21:32.266Z,95943.52
2018-01-29T07:24:00.599Z,95944.94
2018-01-29T07:26:28.864Z,95943.41
2018-01-29T07:28:57.136Z,95932.56
2018-01-29T07:31:25.485Z,95937.06
2018-01-29T07:33:53.708Z,95935.36
2018-01-29T07:36:27.200Z,95938.25
2018-01-29T07:38:56.237Z,95937.25
2018-01-29T07:41:24.539Z,95921.82
2018-01-29T07:43:52.828Z,95923.92
2018-01-29T07:46:21.121Z,95929.88
2018-01-29T07:48:50.281Z,95932.78
2018-01-29T07:51:19.332Z,95924.25
2018-01-29T07:53:47.613Z,95914.80
2018-01-29T07:56:15.909Z,95918.44
2018-01-29T07:58:44.182Z,95921.95
2018-01-29T08:01:12.482Z,95917.68
2018-01-29T08:03:40.761Z,95920.82
2018-01-29T08:06:09.053Z,95921.41
2018-01-29T08:08:37.333Z,95919.91
2018-01-29T08:11:05.615Z,95911.25
2018-01-29T08:13:33.890Z,95921.00
2018-01-29T08:16:02.940Z,95920.98
2018-01-29T08:18:31.219Z,95908.48
2018-01-29T08:21:00.260Z,95920.50
2018-01-29T08:23:28.532Z,95924.59
2018-01-29T08:25:56.820Z,95902.53
2018-01-29T08:28:25.088Z,95910.66
2018-01-29T08:30:53.407Z,95904.42
2018-01-29T08:33:21.689Z,95903.05
2018-01-29T08:35:50.004Z,95908.69
2018-01-29T08:38:18.278Z,95906.64
2018-01-29T08:40:46.545Z,95901.47
2018-01-29T08:43:14.831Z,95904.08
2018-01-29T08:45:43.866Z,95906.08
2018-01-29T08:48:12.153Z,95910.09
2018-01-29T08:50:40.434Z,95907.31
2018-01-29T08:53:08.712Z,95902.78
2018-01-29T08:55:36.989Z,95908.42
2018-01-29T08:58:05.277Z,95901.58
2018-01-29T09:00:33.549Z,95899.09
2018-01-29T09:03:01.834Z,95906.45
2018-01-29T09:05:30.097Z,95907.69
2018-01-29T09:07:59.149Z,95911.70
2018-01-29T09:10:27.431Z,95909.14
2018-01-29T09:12:55.713Z,95906.38
2018-01-29T09:15:23.977Z,95903.23
2018-01-29T09:17:53.042Z,95908.27
2018-01-29T09:20:21.317Z,95884.77
2018-01-29T09:22:49.596Z,95898.94
2018-01-29T09:25:17.869Z,95892.72
2018-01-29T09:27:46.157Z,95893.02
2018-01-29T09:30:14.421Z,95888.65
2018-01-29T09:32:43.460Z,95894.22
2018-01-29T09:35:11.735Z,95894.50
2018-01-29T09:37:40.006Z,95895.19
2018-01-29T09:40:09.053Z,95881.63
2018-01-29T09:42:37.326Z,95898.34
2018-01-29T09:45:05.610Z,95890.39
2018-01-29T09:47:33.897Z,95890.33
2018-01-29T09:50:02.187Z,95890.46
2018-01-29T09:52:30.472Z,95899.05
2018-01-29T09:54:58.754Z,95905.37
2018-01-29T09:57:27.027Z,95904.08
2018-01-29T09:59:56.086Z,95893.46
2018-01-29T10:02:24.370Z,95896.16
2018-01-29T10:04:52.641Z,95876.10
2018-01-29T10:07:20.912Z,95889.83
2018-01-29T10:09:49.946Z,95871.67
2018-01-29T10:12:18.205Z,95877.44
2018-01-29T10:14:48.126Z,95871.33
2018-01-29T10:17:16.392Z,95871.18
2018-01-29T10:19:44.668Z,95872.03
2018-01-29T10:22:12.946Z,95862.34
2018-01-29T10:24:41.216Z,95855.48
2018-01-29T10:27:09.495Z,95856.30
2018-01-29T10:29:37.764Z,95855.27
2018-01-29T10:32:06.839Z,95852.94
2018-01-29T10:34:35.099Z,95854.58
2018-01-29T10:37:03.374Z,95852.69
2018-01-29T10:39:31.636Z,95861.27
2018-01-29T10:41:59.922Z,95842.32
2018-01-29T10:44:28.947Z,95848.73
2018-01-29T10:46:57.380Z,95849.02
2018-01-29T10:49:25.650Z,95835.49
2018-01-29T10:51:53.947Z,95831.00
2018-01-29T10:54:22.233Z,95830.11
2018-01-29T10:56:50.499Z,95817.41
2018-01-29T10:59:18.763Z,95831.73
2018-01-29T11:01:53.412Z,95818.02
2018-01-29T11:04:21.684Z,95817.89
2018-01-29T11:06:50.724Z,95793.21
2018-01-29T11:09:18.993Z,95806.11
2018-01-29T11:11:47.271Z,95790.40
2018-01-29T11:14:16.304Z,95793.34
2018-01-29T11:16:44.608Z,95779.94
2018-01-29T11:19:12.894Z,95773.02
2018-01-29T11:21:41.176Z,95767.06
2018-01-29T11:24:09.481Z,95770.85
2018-01-29T11:26:37.758Z,95770.21
2018-01-29T11:29:06.036Z,95756.20
2018-01-29T11:31:34.312Z,95756.45
2018-01-29T11:34:02.580Z,95744.55
2018-01-29T11:36:31.637Z,95750.32
2018-01-29T11:38:59.916Z,95746.70
2018-01-29T11:41:28.192Z,95740.08
2018-01-29T11:43:56.479Z,95748.86
2018-01-29T11:46:24.756Z,95736.77
2018-01-29T11:48:53.040Z,95720.98
2018-01-29T11:51:21.295Z,95717.25
2018-01-29T11:53:49.573Z,95707.54
2018-01-29T11:56:17.831Z,95710.31
2018-01-29T11:58:46.130Z,95708.44
2018-01-29T12:01:14.398Z,95701.28
2018-01-29T12:03:42.678Z,95702.66
2018-01-29T12:06:10.941Z,95707.69
2018-01-29T12:08:39.981Z,95689.13
2018-01-29T12:11:08.244Z,95695.34
2018-01-29T12:13:37.291Z,95690.28
2018-01-29T12:16:05.570Z,95694.95
2018-01-29T12:18:33.845Z,95686.06
2018-01-29T12:21:02.111Z,95681.61
2018-01-29T12:23:31.157Z,95682.52
2018-01-29T12:26:00.328Z,95679.25
2018-01-29T12:28:29.350Z,95657.48
2018-01-29T12:30:57.628Z,95661.19
2018-01-29T12:33:26.656Z,95673.17
2018-01-29T12:35:54.939Z,95667.91
2018-01-29T12:38:23.229Z,95680.31
2018-01-29T12:40:51.506Z,95678.44
2018-01-29T12:43:20.541Z,95659.02
2018-01-29T12:45:51.788Z,95664.97
2018-01-29T12:48:20.077Z,95638.78
2018-01-29T12:50:48.364Z,95648.80
2018-01-29T12:53:16.620Z,95649.05
2018-01-29T12:55:45.672Z,95642.05
2018-01-29T12:58:13.948Z,95640.32
2018-01-29T13:00:42.222Z,95634.04
2018-01-29T13:03:10.486Z,95626.44
2018-01-29T13:05:38.767Z,95620.07
2018-01-29T13:08:07.031Z,95611.89
2018-01-29T13:10:35.327Z,95614.30
2018-01-29T13:13:03.583Z,95619.84
2018-01-29T13:15:31.864Z,95594.95
2018-01-29T13:18:00.128Z,95612.89
2018-01-29T13:20:29.177Z,95598.79
2018-01-29T13:22:57.444Z,95600.84
2018-01-29T13:25:25.737Z,95604.47
2018-01-29T13:27:53.993Z,95593.92
2018-01-29T13:30:23.012Z,95588.36
2018-01-29T13:32:52.057Z,95576.67
2018-01-29T13:35:20.325Z,95594.78
2018-01-29T13:37:48.615Z,95586.48
2018-01-29T13:40:16.960Z,95575.09
2018-01-29T13:42:48.188Z,95585.98
2018-01-29T13:45:16.452Z,95585.00
2018-01-29T13:47:44.733Z,95581.92
2018-01-29T13:50:13.000Z,95574.59
2018-01-29T13:52:42.043Z,95558.33
2018-01-29T13:55:11.131Z,95555.13
2018-01-29T13:57:39.458Z,95572.37
2018-01-29T14:00:07.722Z,95561.05
2018-01-29T14:02:35.994Z,95550.52
2018-01-29T14:05:04.268Z,95555.77
2018-01-29T14:07:32.536Z,95569.21
2018-01-29T14:10:00.813Z,95547.30
2018-01-29T14:12:29.283Z,95548.23
2018-01-29T14:14:57.581Z,95551.92
2018-01-29T14:17:25.848Z,95540.09
2018-01-29T14:19:54.125Z,95551.19
2018-01-29T14:22:23.096Z,95546.70
2018-01-29T14:24:52.144Z,95523.47
2018-01-29T14:27:20.405Z,95544.53
2018-01-29T14:29:49.452Z,95540.78
2018-01-29T14:32:17.729Z,95538.25
2018-01-29T14:34:46.017Z,95535.83
2018-01-29T14:37:14.301Z,95523.52
2018-01-29T14:39:42.567Z,95528.80
2018-01-29T14:42:11.592Z,95533.23
2018-01-29T14:44:39.855Z,95511.19
2018-01-29T14:47:08.886Z,95515.53
2018-01-29T14:49:37.164Z,95507.43
2018-01-29T14:52:05.424Z,95507.30
2018-01-29T14:54:33.700Z,95494.88
2018-01-29T14:57:01.964Z,95494.63
2018-01-29T14:59:30.231Z,95490.38
2018-01-29T15:01:58.528Z,95492.23
2018-01-29T15:04:26.822Z,95491.82
2018-01-29T15:06:55.117Z,95487.74
2018-01-29T15:09:23.469Z,95498.52
2018-01-29T15:11:51.684Z,95504.72
2018-01-29T15:14:20.737Z,95509.13
2018-01-29T15:16:48.996Z,95486.26
2018-01-29T15:19:17.284Z,95476.97
2018-01-29T15:21:45.549Z,95473.70
2018-01-29T15:24:13.825Z,95474.05
2018-01-29T15:26:42.087Z,95473.36
2018-01-29T15:29:10.419Z,95460.13
2018-01-29T15:31:38.686Z,95474.13
2018-01-29T15:34:06.953Z,95480.02
2018-01-29T15:36:35.981Z,95480.27
2018-01-29T15:39:04.277Z,95476.88
2018-01-29T15:41:33.359Z,95465.06
2018-01-29T15:44:02.405Z,95468.09
2018-01-29T15:46:30.664Z,95460.48
2018-01-29T15:48:59.697Z,95480.27
2018-01-29T15:51:27.960Z,95468.45
2018-01-29T15:53:57.001Z,95462.04
2018-01-29T15:56:26.764Z,95452.20
2018-01-29T15:58:55.057Z,95455.35
2018-01-29T16:01:23.316Z,95449.96
2018-01-29T16:03:51.593Z,95450.72
2018-01-29T16:06:19.857Z,95467.47
2018-01-29T16:08:48.131Z,95453.31
2018-01-29T16:11:17.152Z,95453.05
2018-01-29T16:13:45.429Z,95442.11
2018-01-29T16:16:14.480Z,95441.54
2018-01-29T16:18:42.753Z,95456.16
2018-01-29T16:21:11.020Z,95444.47
2018-01-29T16:23:39.287Z,95432.35
2018-01-29T16:26:08.338Z,95435.31
2018-01-29T16:28:36.625Z,95428.10
2018-01-29T16:31:04.897Z,95419.38
2018-01-29T16:33:33.185Z,95422.06
2018-01-29T16:36:01.476Z,95429.91
2018-01-29T16:38:29.765Z,95405.81
2018-01-29T16:40:58.036Z,95412.67
2018-01-29T16:43:26.542Z,95412.95
2018-01-29T16:45:54.836Z,95413.72
2018-01-29T16:48:23.112Z,95406.86
2018-01-29T16:50:51.385Z,95413.61
2018-01-29T16:53:20.414Z,95409.44
2018-01-29T16:55:48.688Z,95406.42
2018-01-29T16:58:17.729Z,95398.88
2018-01-29T17:00:45.998Z,95409.03
2018-01-29T17:03:14.264Z,95392.52
2018-01-29T17:05:43.301Z,95388.98
2018-01-29T17:08:11.547Z,95390.61
2018-01-29T17:10:44.049Z,95391.86
2018-01-29T17:13:38.093Z,95391.36
2018-01-29T17:16:24.493Z,95389.11
2018-01-29T17:18:52.809Z,95390.91
2018-01-29T17:21:21.024Z,95391.78
2018-01-29T17:23:50.055Z,95400.91
2018-01-29T17:26:18.317Z,95394.00
2018-01-29T17:28:46.588Z,95389.37
2018-01-29T17:31:18.711Z,95386.94
2018-01-29T17:33:46.980Z,95386.72
2018-01-29T17:36:16.008Z,95388.49
2018-01-29T17:38:46.237Z,95381.84
2018-01-29T17:41:14.497Z,95381.34
2018-01-29T17:43:42.772Z,95387.11
2018-01-29T17:46:11.036Z,95391.35
2018-01-29T17:48:39.303Z,95397.19
2018-01-29T17:51:07.558Z,95387.03
2018-01-29T17:53:36.604Z,95397.33
2018-01-29T17:56:04.873Z,95386.86
2018-01-29T17:58:36.869Z,95387.22
2018-01-29T18:01:11.565Z,95385.12
2018-01-29T18:03:39.821Z,95380.41
2018-01-29T18:06:09.147Z,95373.22
2018-01-29T18:08:37.363Z,95387.98
2018-01-29T18:11:08.334Z,95373.77
2018-01-29T18:13:37.528Z,95375.86
2018-01-29T18:16:06.581Z,95375.17
2018-01-29T18:18:34.832Z,95383.06
2018-01-29T18:21:03.108Z,95367.56
2018-01-29T18:23:32.135Z,95368.98
2018-01-29T18:26:00.411Z,95365.45
2018-01-29T18:28:28.677Z,95365.88
2018-01-29T18:30:56.953Z,95379.86
2018-01-29T18:33:25.211Z,95372.63
2018-01-29T18:36:03.368Z,95384.25
2018-01-29T18:38:31.634Z,95373.98
2018-01-29T18:40:59.908Z,95365.98
2018-01-29T18:43:28.172Z,95376.37
2018-01-29T18:45:56.444Z,95377.77
2018-01-29T18:48:46.489Z,95383.61
2018-01-29T18:51:14.755Z,95380.94
2018-01-29T18:53:43.017Z,95378.92
2018-01-29T18:56:12.969Z,95371.05
2018-01-29T18:58:43.199Z,95369.42
2018-01-29T19:01:14.860Z,95379.13
2018-01-29T19:03:44.080Z,95373.42
2018-01-29T19:06:12.382Z,95369.98
2018-01-29T19:08:40.629Z,95359.73
2018-01-29T19:11:09.679Z,95366.23
2018-01-29T19:14:04.303Z,95367.02
2018-01-29T19:16:32.560Z,95373.28
2018-01-29T19:19:10.867Z,95373.63
2018-01-29T19:21:39.917Z,95376.94
2018-01-29T19:24:15.122Z,95370.50
2018-01-29T19:26:44.156Z,95370.30
2018-01-29T19:29:12.419Z,95364.27
2018-01-29T19:31:40.699Z,95368.92
2018-01-29T19:34:09.741Z,95358.63
2018-01-29T19:36:38.016Z,95373.36
2018-01-29T19:39:06.292Z,95369.28
2018-01-29T19:41:57.283Z,95369.25
2018-01-29T19:44:38.536Z,95376.68
2018-01-29T19:47:06.827Z,95374.33
2018-01-29T19:49:36.003Z,95378.89
2018-01-29T19:52:16.687Z,95370.59
2018-01-29T19:54:45.906Z,95377.80
2018-01-29T19:57:17.984Z,95367.92
2018-01-29T19:59:46.244Z,95389.14
2018-01-29T20:02:14.520Z,95377.55
2018-01-29T20:04:42.805Z,95379.80
2018-01-29T20:07:14.919Z,95375.44
2018-01-29T20:09:43.130Z,95400.13
2018-01-29T20:12:12.166Z,95405.80
2018-01-29T20:14:40.433Z,95400.05
2018-01-29T20:17:08.698Z,95416.23
2018-01-29T20:19:36.956Z,95433.08
2018-01-29T20:22:05.206Z,95420.53
2018-01-29T20:24:33.482Z,95430.83
2018-01-29T20:27:01.743Z,95459.54
2018-01-29T20:29:30.017Z,95494.30
2018-01-29T20:31:59.084Z,95505.67
2018-01-29T20:34:27.356Z,95533.09
2018-01-29T20:36:55.609Z,95528.83
2018-01-29T20:39:27.811Z,95530.42
2018-01-29T20:41:56.068Z,95537.23
2018-01-29T20:44:25.109Z,95537.02
2018-01-29T20:46:56.763Z,95552.47
2018-01-29T20:49:25.956Z,95557.67
2018-01-29T20:51:54.980Z,95563.65
2018-01-29T20:54:23.231Z,95568.88
2018-01-29T20:56:51.492Z,95579.81
2018-01-29T20:59:19.743Z,95569.80
2018-01-29T21:01:48.003Z,95584.36
2018-01-29T21:04:16.264Z,95573.78
2018-01-29T21:06:44.552Z,95581.79
2018-01-29T21:09:12.791Z,95604.02
2018-01-29T21:11:41.823Z,95598.73
2018-01-29T21:14:10.114Z,95601.84
2018-01-29T21:16:39.144Z,95615.13
2018-01-29T21:19:07.395Z,95624.00
2018-01-29T21:21:35.668Z,95621.61
2018-01-29T21:24:08.260Z,95626.66
2018-01-29T21:26:51.522Z,95633.20
2018-01-29T21:29:19.776Z,95648.29
2018-01-29T21:31:48.805Z,95655.16
2018-01-29T21:34:17.061Z,95670.87
2018-01-29T21:36:45.327Z,95644.38
2018-01-29T21:39:13.588Z,95685.77
2018-01-29T21:41:45.353Z,95683.06
2018-01-29T21:44:13.612Z,95687.20
2018-01-29T21:46:42.647Z,95689.04
2018-01-29T21:49:10.997Z,95695.86
2018-01-29T21:51:40.037Z,95696.71
2018-01-29T21:54:08.308Z,95708.28
2018-01-29T21:56:37.332Z,95731.63
2018-01-29T21:59:05.602Z,95719.39
2018-01-29T22:01:34.637Z,95720.90
2018-01-29T22:04:02.898Z,95732.74
2018-01-29T22:06:31.159Z,95728.91
2018-01-29T22:08:59.423Z,95732.55
2018-01-29T22:11:27.688Z,95738.61
2018-01-29T22:13:55.948Z,95744.78
2018-01-29T22:16:26.912Z,95753.59
2018-01-29T22:18:55.163Z,95745.82
2018-01-29T22:21:23.425Z,95770.66
2018-01-29T22:23:51.684Z,95775.24
2018-01-29T22:26:20.887Z,95777.83
2018-01-29T22:28:49.146Z,95780.34
2018-01-29T22:31:18.185Z,95797.45
2018-01-29T22:33:46.445Z,95791.70
2018-01-29T22:36:15.476Z,95790.16
2018-01-29T22:38:43.756Z,95795.91
2018-01-29T22:41:12.020Z,95792.88
2018-01-29T22:43:41.053Z,95802.92
2018-01-29T22:46:09.325Z,95793.69
2018-01-29T22:48:38.373Z,95804.87
2018-01-29T22:51:06.628Z,95802.94
2018-01-29T22:53:35.839Z,95800.95
2018-01-29T22:56:06.090Z,95805.97
2018-01-29T22:58:34.358Z,95804.66
2018-01-29T23:01:03.392Z,95816.67
2018-01-29T23:03:31.660Z,95827.95
2018-01-29T23:06:12.212Z,95824.68
2018-01-29T23:08:40.472Z,95823.65
2018-01-29T23:11:08.744Z,95839.65
2018-01-29T23:13:37.014Z,95846.98
2018-01-29T23:16:30.684Z,95847.67
2018-01-29T23:18:58.901Z,95861.56
2018-01-29T23:21:27.172Z,95857.33
2018-01-29T23:23:55.441Z,95867.80
2018-01-29T23:26:24.477Z,95882.53
2018-01-29T23:28:53.664Z,95876.40
2018-01-29T23:31:22.766Z,95878.42
2018-01-29T23:33:50.972Z,95873.41
2018-01-29T23:36:19.244Z,95885.67
2018-01-29T23:38:48.264Z,95888.16
2018-01-29T23:41:16.546Z,95893.92
2018-01-29T23:43:44.807Z,95901.41
2018-01-29T23:46:18.454Z,95909.95
2018-01-29T23:48:46.729Z,95909.95
2018-01-29T23:51:15.775Z,95900.63
2018-01-29T23:53:44.040Z,95916.02
2018-01-29T23:56:16.827Z,95918.19
2018-01-29T23:58:45.096Z,95904.02
